Time;durP1;ratioP1;P1;durP2;ratioP2;P2;SDS_P1;SDS_P2;PMS_P1;PMS_P2;Temp;Humidity;BMP_temperature;BMP_pressure;BME280_temperature;BME280_humidity;BME280_pressure;Samples;Min_cycle;Max_cycle;Signal;HPM_P1;HPM_P2
2024/03/10 00:02:22;;;;;;;17.60;14.32;;;12.80;78.60;;;;;;4976826;28;20039;-89
2024/03/10 00:04:48;;;;;;;17.38;13.82;;;12.80;78.70;;;;;;4944284;29;20029;-89
2024/03/10 00:07:14;;;;;;;16.63;14.40;;;12.80;78.70;;;;;;4960191;28;20047;-86
2024/03/10 00:09:45;;;;;;;18.90;14.18;;;12.80;78.70;;;;;;4958506;28;20063;-89
2024/03/10 00:12:11;;;;;;;16.92;14.75;;;12.80;79.30;;;;;;4952234;28;20043;-91
2024/03/10 00:14:37;;;;;;;16.98;13.45;;;12.80;78.70;;;;;;4944533;29;20107;-90
2024/03/10 00:17:03;;;;;;;17.50;14.30;;;12.70;78.60;;;;;;4941242;29;20024;-90
2024/03/10 00:19:30;;;;;;;17.25;13.90;;;12.70;78.60;;;;;;4963701;28;20061;-86
2024/03/10 00:21:56;;;;;;;17.98;14.48;;;12.70;78.60;;;;;;4962417;28;20027;-84
2024/03/10 00:24:23;;;;;;;16.60;13.68;;;12.70;78.70;;;;;;4959106;28;20023;-86
2024/03/10 00:26:52;;;;;;;18.05;15.07;;;12.70;78.60;;;;;;4946524;28;20557;-86
2024/03/10 00:29:18;;;;;;;17.20;14.57;;;12.70;78.60;;;;;;4955924;28;20541;-86
2024/03/10 00:31:44;;;;;;;18.65;14.57;;;12.70;78.70;;;;;;4963619;28;20031;-86
2024/03/10 00:34:12;;;;;;;18.77;15.52;;;12.70;78.70;;;;;;4951356;28;20473;-82
2024/03/10 00:36:39;;;;;;;15.90;13.80;;;12.70;78.70;;;;;;4944973;28;20054;-83
2024/03/10 00:39:08;;;;;;;18.52;14.88;;;12.60;78.60;;;;;;4947936;28;20027;-86
2024/03/10 00:41:35;;;;;;;17.17;14.38;;;12.60;78.70;;;;;;4947700;28;20039;-86
2024/03/10 00:44:02;;;;;;;17.98;15.07;;;12.60;78.70;;;;;;4979566;28;20019;-90
2024/03/10 00:46:31;;;;;;;17.65;14.70;;;12.60;78.60;;;;;;4947032;28;20506;-83
2024/03/10 00:48:56;;;;;;;18.70;15.07;;;12.60;78.70;;;;;;4964860;28;20026;-86
2024/03/10 00:51:24;;;;;;;19.05;15.30;;;12.60;78.70;;;;;;4963156;28;20089;-90
2024/03/10 00:53:51;;;;;;;17.70;14.75;;;12.60;78.70;;;;;;4974600;28;20376;-83
2024/03/10 00:56:25;;;;;;;17.13;14.52;;;12.50;78.70;;;;;;4948076;28;20069;-91
2024/03/10 00:58:51;;;;;;;19.50;14.80;;;12.60;78.70;;;;;;4967560;28;20042;-92
2024/03/10 01:01:17;;;;;;;18.30;15.15;;;12.50;78.60;;;;;;4957264;28;20023;-82
2024/03/10 01:03:45;;;;;;;16.95;14.40;;;12.60;78.70;;;;;;4962941;28;20081;-82
2024/03/10 01:06:16;;;;;;;17.80;14.80;;;12.50;78.70;;;;;;4962465;28;20035;-91
2024/03/10 01:08:43;;;;;;;18.75;15.68;;;12.50;78.60;;;;;;4978933;28;20379;-91
2024/03/10 01:11:12;;;;;;;18.40;15.13;;;12.50;78.70;;;;;;4946084;28;20035;-89
2024/03/10 01:13:39;;;;;;;16.88;14.05;;;12.50;78.70;;;;;;4944637;28;20115;-82
2024/03/10 01:16:08;;;;;;;18.17;15.15;;;12.50;78.70;;;;;;4942629;28;20101;-89
2024/03/10 01:18:37;;;;;;;18.58;15.25;;;12.50;78.70;;;;;;4955018;28;20070;-83
2024/03/10 01:21:04;;;;;;;18.10;15.40;;;12.50;78.70;;;;;;4955971;28;20026;-91
2024/03/10 01:23:32;;;;;;;17.58;14.32;;;12.50;78.70;;;;;;4944569;28;20486;-83
2024/03/10 01:26:05;;;;;;;18.95;15.55;;;12.50;78.70;;;;;;4990672;28;20027;-89
2024/03/10 01:28:37;;;;;;;17.05;14.43;;;12.40;78.60;;;;;;4947396;28;20081;-89
2024/03/10 01:31:05;;;;;;;18.05;14.93;;;12.40;78.60;;;;;;4944686;29;20460;-91
2024/03/10 01:33:33;;;;;;;17.10;14.82;;;12.40;78.70;;;;;;4974901;28;20047;-83
2024/03/10 01:36:00;;;;;;;17.40;14.77;;;12.40;78.70;;;;;;4962939;28;20034;-86
2024/03/10 01:38:31;;;;;;;19.15;15.43;;;12.40;78.70;;;;;;4962403;28;20078;-86
2024/03/10 01:40:58;;;;;;;18.17;14.98;;;12.40;78.70;;;;;;4960822;28;20124;-91
2024/03/10 01:43:25;;;;;;;18.10;14.73;;;12.40;78.70;;;;;;4944929;28;20031;-86
2024/03/10 01:46:06;;;;;;;18.98;15.38;;;12.40;78.70;;;;;;4944674;28;20038;-86
2024/03/10 01:48:38;;;;;;;18.17;14.90;;;12.30;78.70;;;;;;4961988;28;20095;-86
2024/03/10 01:51:06;;;;;;;19.17;15.65;;;12.30;78.70;;;;;;4958869;28;20031;-89
2024/03/10 01:53:36;;;;;;;19.40;16.70;;;12.30;78.70;;;;;;4957096;28;20027;-89
2024/03/10 01:56:05;;;;;;;18.98;15.45;;;12.30;78.70;;;;;;4960155;28;20035;-83
2024/03/10 01:58:36;;;;;;;18.23;15.20;;;12.30;78.70;;;;;;4964339;28;20437;-86
2024/03/10 02:01:03;;;;;;;18.60;15.68;;;12.30;78.70;;;;;;4947271;28;20036;-91
2024/03/10 02:03:29;;;;;;;19.58;15.63;;;12.30;79.30;;;;;;4945452;28;20027;-83
2024/03/10 02:05:58;;;;;;;19.20;16.17;;;12.30;78.70;;;;;;4955658;28;20081;-92
2024/03/10 02:08:23;;;;;;;18.73;15.52;;;12.30;78.70;;;;;;4960973;28;20031;-86
2024/03/10 02:10:51;;;;;;;20.08;15.48;;;12.20;78.60;;;;;;4946249;28;20031;-83
2024/03/10 02:13:18;;;;;;;18.65;15.65;;;12.20;78.60;;;;;;4952436;28;20027;-89
2024/03/10 02:15:59;;;;;;;19.40;15.45;;;12.20;78.60;;;;;;4960858;28;20019;-89
2024/03/10 02:18:26;;;;;;;18.77;14.90;;;12.30;78.60;;;;;;4959309;28;20090;-90
2024/03/10 02:20:59;;;;;;;19.77;16.05;;;12.20;78.50;;;;;;4977704;28;20030;-86
2024/03/10 02:23:50;;;;;;;20.40;15.95;;;12.20;78.50;;;;;;4957161;28;20090;-86
2024/03/10 02:26:17;;;;;;;17.73;14.73;;;12.20;78.50;;;;;;4952238;28;20039;-83
2024/03/10 02:28:48;;;;;;;18.05;15.52;;;12.20;78.50;;;;;;4959169;28;20019;-91
2024/03/10 02:47:47;;;;;;;18.33;14.55;;;12.10;79.30;;;;;;4959533;28;20126;-86
2024/03/10 02:50:15;;;;;;;19.75;16.02;;;12.10;78.70;;;;;;4947547;29;20029;-92
2024/03/10 02:52:42;;;;;;;19.45;15.85;;;12.10;78.70;;;;;;4970489;28;20079;-89
2024/03/10 02:55:11;;;;;;;18.85;15.23;;;12.10;78.70;;;;;;4968611;28;20037;-86
2024/03/10 02:57:38;;;;;;;18.33;15.98;;;12.00;78.60;;;;;;4962344;28;20038;-86
2024/03/10 03:00:12;;;;;;;20.23;16.63;;;12.10;78.60;;;;;;4952094;28;20118;-87
2024/03/10 03:02:43;;;;;;;19.48;15.43;;;12.10;78.60;;;;;;4953735;28;20031;-89
2024/03/10 03:05:11;;;;;;;21.17;16.13;;;12.00;78.50;;;;;;4956862;28;20046;-90
2024/03/10 03:07:37;;;;;;;18.98;16.05;;;12.00;78.50;;;;;;4931382;28;20038;-86
2024/03/10 03:10:11;;;;;;;21.05;16.45;;;12.00;78.60;;;;;;4961203;28;20078;-86
2024/03/10 03:12:37;;;;;;;18.90;16.02;;;12.00;78.60;;;;;;4944298;28;20069;-84
2024/03/10 03:15:04;;;;;;;20.65;16.70;;;12.00;78.50;;;;;;4960470;28;20027;-92
2024/03/10 03:17:31;;;;;;;19.73;16.10;;;12.00;78.60;;;;;;4956370;28;20039;-87
2024/03/10 03:19:59;;;;;;;20.92;16.33;;;12.00;78.60;;;;;;4956206;28;20085;-91
2024/03/10 03:22:26;;;;;;;20.52;16.77;;;12.00;78.60;;;;;;4956076;28;20030;-89
2024/03/10 03:24:58;;;;;;;20.50;16.33;;;12.00;78.50;;;;;;4955504;29;20035;-91
2024/03/10 03:27:25;;;;;;;20.17;16.58;;;12.00;78.50;;;;;;4956529;28;20089;-92
2024/03/10 03:29:51;;;;;;;19.30;16.33;;;12.00;78.50;;;;;;4957059;28;20118;-86
2024/03/10 03:32:17;;;;;;;19.52;16.15;;;12.00;78.60;;;;;;4954994;28;20069;-86
2024/03/10 03:34:47;;;;;;;19.00;15.95;;;11.90;78.50;;;;;;4955529;28;20023;-85
2024/03/10 03:37:14;;;;;;;21.90;17.23;;;11.90;78.50;;;;;;4939855;29;20038;-91
2024/03/10 03:39:43;;;;;;;21.30;16.63;;;11.90;78.50;;;;;;4956200;28;20035;-91
2024/03/10 03:42:10;;;;;;;20.33;16.58;;;11.90;78.40;;;;;;4936847;29;20032;-85
2024/03/10 03:44:39;;;;;;;20.55;16.45;;;11.90;78.50;;;;;;4955932;28;20038;-91
2024/03/10 03:47:05;;;;;;;19.00;15.73;;;11.90;79.00;;;;;;4947214;28;20117;-86
2024/03/10 03:49:35;;;;;;;19.45;16.50;;;11.90;78.40;;;;;;4955559;28;20069;-86
2024/03/10 03:52:02;;;;;;;21.50;16.67;;;11.90;78.40;;;;;;4955658;28;20031;-89
2024/03/10 03:54:31;;;;;;;20.52;17.17;;;11.90;78.40;;;;;;4947849;28;20030;-83
2024/03/10 03:56:58;;;;;;;20.23;16.70;;;11.90;78.40;;;;;;4955211;28;20039;-91
2024/03/10 03:59:24;;;;;;;19.77;16.98;;;11.90;78.40;;;;;;4939526;29;20035;-89
2024/03/10 04:01:52;;;;;;;20.17;16.42;;;11.90;78.30;;;;;;4945660;28;20034;-83
2024/03/10 04:04:19;;;;;;;20.13;16.23;;;11.80;78.30;;;;;;4955396;28;20015;-83
2024/03/10 04:06:45;;;;;;;19.77;16.55;;;11.80;78.30;;;;;;4935790;29;20521;-89
2024/03/10 04:09:12;;;;;;;19.17;15.70;;;11.80;78.20;;;;;;4941684;28;20400;-83
2024/03/10 04:11:42;;;;;;;20.63;16.52;;;11.80;78.20;;;;;;4942839;28;20059;-86
2024/03/10 04:14:09;;;;;;;20.48;16.08;;;11.90;78.30;;;;;;4939488;29;20027;-86
2024/03/10 04:16:38;;;;;;;20.63;16.67;;;11.80;78.20;;;;;;4942678;28;20133;-86
2024/03/10 04:19:06;;;;;;;20.40;16.85;;;11.80;78.20;;;;;;4971048;28;20047;-88
2024/03/10 04:21:33;;;;;;;21.63;17.63;;;11.80;78.20;;;;;;4940878;28;20046;-88
2024/03/10 04:24:04;;;;;;;20.20;17.13;;;11.80;78.30;;;;;;4941900;29;20091;-86
2024/03/10 04:26:30;;;;;;;18.52;16.38;;;11.80;78.30;;;;;;4940000;29;20099;-89
2024/03/10 04:28:58;;;;;;;21.25;17.13;;;11.80;78.30;;;;;;4955675;28;20489;-86
2024/03/10 04:31:24;;;;;;;20.58;16.60;;;11.80;78.20;;;;;;4958755;28;20023;-88
2024/03/10 04:33:52;;;;;;;19.95;16.23;;;11.80;78.20;;;;;;4956218;28;20027;-84
2024/03/10 04:36:19;;;;;;;20.95;17.38;;;11.70;78.20;;;;;;4956099;28;20047;-90
2024/03/10 04:38:45;;;;;;;21.27;17.00;;;11.70;78.20;;;;;;4940497;29;20031;-88
2024/03/10 04:41:18;;;;;;;19.88;16.52;;;11.70;78.20;;;;;;4953931;28;20170;-88
2024/03/10 04:43:48;;;;;;;20.42;15.88;;;11.70;78.20;;;;;;4956393;28;20043;-90
2024/03/10 04:46:19;;;;;;;21.65;17.30;;;11.70;78.20;;;;;;4959559;28;20098;-86
2024/03/10 04:48:50;;;;;;;22.08;16.88;;;11.70;78.20;;;;;;4956100;28;20046;-86
2024/03/10 04:51:17;;;;;;;21.17;17.17;;;11.70;78.20;;;;;;4941191;29;20607;-86
2024/03/10 04:53:47;;;;;;;21.17;16.85;;;11.60;78.20;;;;;;4960512;28;20062;-86
2024/03/10 04:56:14;;;;;;;20.88;16.42;;;11.60;78.20;;;;;;4946091;29;20035;-91
2024/03/10 04:58:41;;;;;;;19.67;16.65;;;11.60;78.20;;;;;;4952464;28;20049;-86
2024/03/10 05:01:08;;;;;;;20.02;16.70;;;11.60;78.20;;;;;;4966197;28;20479;-82
2024/03/10 05:03:37;;;;;;;20.58;16.45;;;11.60;78.20;;;;;;4945834;29;20395;-83
2024/03/10 05:06:04;;;;;;;20.48;17.42;;;11.60;78.20;;;;;;4959686;28;20043;-85
2024/03/10 05:08:36;;;;;;;20.80;16.23;;;11.60;78.20;;;;;;4965128;28;20039;-89
2024/03/10 05:11:03;;;;;;;21.50;17.15;;;11.60;78.20;;;;;;4961360;28;20217;-87
2024/03/10 05:13:33;;;;;;;20.33;16.55;;;11.50;78.20;;;;;;4942409;29;20065;-89
2024/03/10 05:15:59;;;;;;;20.73;16.63;;;11.60;78.20;;;;;;4944157;29;20030;-83
2024/03/10 05:18:26;;;;;;;21.60;17.48;;;11.50;78.20;;;;;;4958756;28;20431;-86
2024/03/10 05:20:53;;;;;;;18.98;15.35;;;11.50;78.10;;;;;;4952422;28;20067;-86
2024/03/10 05:23:20;;;;;;;20.25;16.60;;;11.50;78.10;;;;;;4959300;28;20175;-86
2024/03/10 05:25:50;;;;;;;19.20;16.30;;;11.50;78.10;;;;;;4964346;28;20509;-91
2024/03/10 05:28:17;;;;;;;20.63;17.05;;;11.50;78.20;;;;;;4964329;28;20051;-82
2024/03/10 05:30:44;;;;;;;20.85;17.15;;;11.40;78.20;;;;;;4959331;28;20022;-89
2024/03/10 05:33:11;;;;;;;19.85;16.30;;;11.50;78.20;;;;;;4958274;28;20027;-86
2024/03/10 05:35:40;;;;;;;20.80;16.63;;;11.50;78.20;;;;;;4947525;29;20032;-89
2024/03/10 05:38:05;;;;;;;19.42;15.93;;;11.40;78.10;;;;;;4938586;29;20432;-89
2024/03/10 05:40:32;;;;;;;21.25;17.02;;;11.40;78.00;;;;;;4957214;28;20558;-86
2024/03/10 05:42:58;;;;;;;20.95;16.38;;;11.40;78.10;;;;;;4956617;28;20054;-89
2024/03/10 05:45:24;;;;;;;20.50;16.30;;;11.40;78.20;;;;;;4941848;29;20118;-89
2024/03/10 05:47:55;;;;;;;20.83;16.17;;;11.40;78.20;;;;;;4941200;29;20464;-90
2024/03/10 05:50:21;;;;;;;20.67;16.15;;;11.40;78.10;;;;;;4958028;28;20062;-90
2024/03/10 05:52:47;;;;;;;20.90;16.17;;;11.40;78.10;;;;;;4959595;28;20034;-89
2024/03/10 05:55:13;;;;;;;20.52;15.63;;;11.40;78.10;;;;;;4956241;28;20019;-85
2024/03/10 05:57:42;;;;;;;20.73;16.02;;;11.30;78.00;;;;;;4942965;28;20031;-90
2024/03/10 06:00:14;;;;;;;21.77;17.25;;;11.30;78.00;;;;;;4943036;28;20039;-83
2024/03/10 06:02:45;;;;;;;21.15;16.67;;;11.30;78.10;;;;;;4958135;28;20035;-89
2024/03/10 06:05:13;;;;;;;20.35;15.77;;;11.30;78.10;;;;;;4941155;29;20098;-86
2024/03/10 06:07:40;;;;;;;20.08;16.42;;;11.30;78.10;;;;;;4944498;28;20051;-91
2024/03/10 06:10:11;;;;;;;20.38;16.83;;;11.30;78.20;;;;;;4961715;28;20063;-83
2024/03/10 06:12:42;;;;;;;21.35;16.63;;;11.20;78.10;;;;;;4944801;29;20039;-89
2024/03/10 06:15:16;;;;;;;20.60;15.90;;;11.20;78.10;;;;;;4951428;29;20049;-90
2024/03/10 06:18:02;;;;;;;21.17;16.63;;;11.20;78.00;;;;;;4958890;28;20023;-91
2024/03/10 06:25:58;;;;;;;19.85;15.45;;;11.20;78.20;;;;;;4963336;28;20058;-89
2024/03/10 06:28:25;;;;;;;21.15;16.35;;;11.10;78.10;;;;;;4947638;29;20126;-86
2024/03/10 06:30:51;;;;;;;20.08;15.80;;;11.10;78.10;;;;;;4961026;28;20058;-91
2024/03/10 06:33:17;;;;;;;19.85;16.35;;;11.10;78.10;;;;;;4944412;28;20057;-86
2024/03/10 06:35:45;;;;;;;21.60;16.52;;;11.10;78.10;;;;;;4945199;28;20026;-86
2024/03/10 06:38:12;;;;;;;20.95;16.05;;;11.10;78.10;;;;;;4951064;28;20066;-90
2024/03/10 06:40:39;;;;;;;20.95;16.50;;;11.10;78.10;;;;;;4957631;28;20105;-86
2024/03/10 06:43:05;;;;;;;19.30;15.18;;;11.10;78.10;;;;;;4944810;28;20023;-91
2024/03/10 06:45:32;;;;;;;20.45;15.80;;;11.10;78.00;;;;;;4960097;28;20031;-84
2024/03/10 06:47:59;;;;;;;19.95;15.80;;;11.10;78.10;;;;;;4961448;28;20023;-90
2024/03/10 06:50:28;;;;;;;19.60;15.80;;;11.10;78.70;;;;;;4942102;29;20031;-86
2024/03/10 06:52:54;;;;;;;19.92;16.17;;;11.10;78.00;;;;;;4959268;28;20043;-86
2024/03/10 06:55:20;;;;;;;20.10;16.00;;;11.10;78.00;;;;;;4959932;28;20039;-90
2024/03/10 06:57:49;;;;;;;19.25;14.93;;;11.00;78.60;;;;;;4949903;28;20118;-83
2024/03/10 07:00:20;;;;;;;20.40;15.88;;;11.00;77.90;;;;;;4958146;28;20055;-90
2024/03/10 07:02:51;;;;;;;20.60;14.95;;;11.00;77.90;;;;;;4957629;28;20027;-90
2024/03/10 07:05:18;;;;;;;19.92;15.23;;;11.00;77.90;;;;;;4948066;28;20035;-90
2024/03/10 07:07:50;;;;;;;19.88;15.05;;;11.00;78.00;;;;;;4959205;28;20031;-89
2024/03/10 07:10:16;;;;;;;21.52;16.13;;;11.00;78.60;;;;;;4967652;28;20038;-86
2024/03/10 07:12:42;;;;;;;21.67;16.35;;;11.00;78.00;;;;;;4973111;28;20033;-91
2024/03/10 07:15:09;;;;;;;20.60;15.23;;;11.00;77.90;;;;;;4943514;28;20031;-86
2024/03/10 07:17:40;;;;;;;21.08;15.30;;;11.00;77.90;;;;;;4960179;28;20406;-89
2024/03/10 07:20:10;;;;;;;19.60;16.05;;;11.00;78.00;;;;;;4972091;28;20038;-86
2024/03/10 07:22:37;;;;;;;18.20;14.25;;;11.00;78.00;;;;;;4947921;28;20502;-90
2024/03/10 07:25:06;;;;;;;19.92;14.82;;;11.00;77.90;;;;;;4945501;28;20455;-85
2024/03/10 07:27:32;;;;;;;20.85;15.63;;;11.00;77.90;;;;;;4958365;28;20039;-83
2024/03/10 07:29:59;;;;;;;19.77;15.40;;;11.00;77.90;;;;;;4970152;28;20060;-90
2024/03/10 07:32:27;;;;;;;20.70;15.70;;;10.90;77.90;;;;;;4959635;28;20026;-83
2024/03/10 07:34:57;;;;;;;19.10;15.30;;;10.90;77.90;;;;;;4947884;28;20077;-91
2024/03/10 07:37:27;;;;;;;19.65;15.35;;;10.90;77.90;;;;;;4975142;28;20057;-87
2024/03/10 07:39:53;;;;;;;19.58;15.00;;;10.90;77.90;;;;;;4961636;28;20034;-85
2024/03/10 07:42:21;;;;;;;19.33;14.68;;;10.90;77.90;;;;;;4959436;28;20114;-86
2024/03/10 07:44:54;;;;;;;17.83;14.27;;;10.90;77.90;;;;;;4943857;28;20041;-87
2024/03/10 07:47:20;;;;;;;19.42;14.93;;;10.90;77.90;;;;;;4935222;28;20424;-85
2024/03/10 07:49:47;;;;;;;18.63;15.38;;;10.90;77.90;;;;;;4943562;28;20027;-89
2024/03/10 07:52:14;;;;;;;18.65;15.18;;;10.90;77.90;;;;;;4926662;28;20070;-82
2024/03/10 07:54:45;;;;;;;20.48;15.20;;;10.90;77.80;;;;;;4976560;28;20231;-88
2024/03/10 07:57:11;;;;;;;19.30;15.27;;;10.90;77.90;;;;;;4943125;28;20035;-85
2024/03/10 07:59:38;;;;;;;19.13;15.40;;;10.90;77.90;;;;;;4942717;28;20070;-87
2024/03/10 08:02:07;;;;;;;19.40;14.85;;;10.90;77.90;;;;;;4964384;28;20038;-89
2024/03/10 08:04:33;;;;;;;18.73;14.85;;;10.90;77.90;;;;;;4940394;29;20053;-85
2024/03/10 08:06:59;;;;;;;17.63;14.18;;;10.90;77.90;;;;;;4944791;28;20535;-89
2024/03/10 08:09:25;;;;;;;19.70;15.10;;;10.90;77.90;;;;;;4939591;29;20031;-88
2024/03/10 08:11:51;;;;;;;19.60;15.23;;;10.90;77.80;;;;;;4938608;28;20023;-83
2024/03/10 08:14:20;;;;;;;20.23;15.88;;;10.90;77.80;;;;;;4942000;29;20448;-83
2024/03/10 08:16:48;;;;;;;18.25;14.48;;;11.00;77.90;;;;;;4958143;28;20031;-89
2024/03/10 08:19:15;;;;;;;18.70;15.32;;;11.00;77.90;;;;;;4961040;28;20046;-90
2024/03/10 08:21:43;;;;;;;18.42;15.07;;;11.00;77.90;;;;;;4969649;28;20077;-90
2024/03/10 08:24:09;;;;;;;20.13;15.38;;;11.00;77.90;;;;;;4966046;28;20450;-89
2024/03/10 08:26:36;;;;;;;18.95;14.23;;;11.00;77.90;;;;;;4991776;28;20041;-90
2024/03/10 08:29:03;;;;;;;18.40;14.63;;;11.00;77.90;;;;;;4950066;28;20027;-84
2024/03/10 08:31:29;;;;;;;19.55;14.55;;;11.00;77.90;;;;;;4963912;28;20031;-84
2024/03/10 08:33:54;;;;;;;19.60;15.35;;;11.00;77.90;;;;;;4947631;28;20081;-84
2024/03/10 08:36:20;;;;;;;18.20;13.88;;;11.00;77.90;;;;;;4961880;28;20018;-85
2024/03/10 08:38:49;;;;;;;18.55;14.40;;;11.00;77.90;;;;;;4962933;28;20026;-85
2024/03/10 08:41:16;;;;;;;17.80;14.27;;;11.10;77.90;;;;;;4961010;28;20031;-83
2024/03/10 08:43:45;;;;;;;18.52;13.70;;;11.10;77.90;;;;;;4966555;28;20062;-86
2024/03/10 08:46:11;;;;;;;18.00;14.15;;;11.10;77.90;;;;;;4962289;28;20043;-92
2024/03/10 08:48:39;;;;;;;17.15;14.05;;;11.10;77.80;;;;;;4963378;28;20034;-83
2024/03/10 08:51:05;;;;;;;18.80;14.43;;;11.10;77.90;;;;;;4945143;28;20093;-82
2024/03/10 08:53:33;;;;;;;18.98;14.43;;;11.10;77.80;;;;;;4962387;28;20038;-91
2024/03/10 08:56:00;;;;;;;17.45;13.90;;;11.20;77.80;;;;;;4961664;28;20109;-84
2024/03/10 08:58:26;;;;;;;18.15;14.98;;;11.20;77.80;;;;;;4965127;28;20034;-92
2024/03/10 09:00:54;;;;;;;17.88;13.30;;;11.20;77.80;;;;;;4962367;28;20035;-93
2024/03/10 09:03:22;;;;;;;18.92;14.65;;;11.20;77.80;;;;;;4979438;28;20109;-84
2024/03/10 09:05:49;;;;;;;18.05;13.57;;;11.20;77.80;;;;;;4965714;28;20077;-90
2024/03/10 09:08:15;;;;;;;18.88;14.55;;;11.20;77.70;;;;;;4962021;28;20054;-85
2024/03/10 09:10:41;;;;;;;18.40;13.77;;;11.30;77.70;;;;;;4965350;28;20034;-90
2024/03/10 09:13:09;;;;;;;17.00;13.63;;;11.30;77.70;;;;;;4964876;28;20112;-91
2024/03/10 09:15:37;;;;;;;18.38;14.38;;;11.30;77.60;;;;;;4958293;28;20031;-90
2024/03/10 09:18:03;;;;;;;16.73;13.23;;;11.40;77.70;;;;;;4937331;28;20035;-84
2024/03/10 09:20:30;;;;;;;16.63;12.93;;;11.40;77.60;;;;;;4968493;28;20033;-92
2024/03/10 09:22:57;;;;;;;18.90;15.15;;;11.40;77.60;;;;;;4969047;28;20026;-95
2024/03/10 09:25:30;;;;;;;18.70;13.95;;;11.50;77.60;;;;;;4963474;28;20491;-90
2024/03/10 09:27:56;;;;;;;17.27;14.40;;;11.50;77.60;;;;;;4971486;28;20478;-91
2024/03/10 09:30:23;;;;;;;17.92;13.93;;;11.50;78.10;;;;;;4949124;28;20034;-90
2024/03/10 09:32:57;;;;;;;17.17;13.65;;;11.50;77.50;;;;;;4952757;28;20034;-91
2024/03/10 09:35:28;;;;;;;16.45;13.43;;;11.60;77.50;;;;;;4960572;28;20054;-85
2024/03/10 09:37:58;;;;;;;17.52;13.85;;;11.60;77.50;;;;;;4949665;28;20035;-88
2024/03/10 09:40:31;;;;;;;17.88;13.98;;;11.60;77.40;;;;;;4961343;28;20019;-87
2024/03/10 09:42:59;;;;;;;17.63;13.45;;;11.60;77.40;;;;;;4946107;28;20015;-87
2024/03/10 09:45:37;;;;;;;16.58;13.73;;;11.70;77.40;;;;;;4948574;28;20039;-88
2024/03/10 09:48:09;;;;;;;17.15;14.25;;;11.70;77.40;;;;;;4968238;28;20027;-84
2024/03/10 09:50:41;;;;;;;16.85;13.65;;;11.70;77.40;;;;;;4955091;28;20078;-84
2024/03/10 09:53:08;;;;;;;17.55;14.15;;;11.80;77.40;;;;;;4966327;28;20065;-84
2024/03/10 09:55:37;;;;;;;16.35;12.95;;;11.80;77.40;;;;;;4955921;28;20031;-84
2024/03/10 09:58:13;;;;;;;18.33;13.82;;;11.80;77.40;;;;;;4959675;28;20039;-90
2024/03/10 10:00:44;;;;;;;17.23;13.48;;;11.90;77.50;;;;;;4958480;28;20033;-89
2024/03/10 10:03:12;;;;;;;17.20;13.73;;;11.90;77.50;;;;;;4961311;28;20041;-87
2024/03/10 10:05:44;;;;;;;16.58;13.65;;;11.90;77.50;;;;;;4960790;28;20113;-84
2024/03/10 10:08:14;;;;;;;16.85;13.65;;;12.00;77.50;;;;;;4943980;28;20046;-88
2024/03/10 10:10:50;;;;;;;17.10;13.52;;;12.00;77.50;;;;;;4944167;28;20390;-88
2024/03/10 10:13:28;;;;;;;18.05;13.57;;;12.10;77.60;;;;;;4944095;28;20029;-85
2024/03/10 10:15:57;;;;;;;16.13;12.93;;;12.10;77.50;;;;;;4964936;28;20133;-83
2024/03/10 10:18:27;;;;;;;16.63;13.27;;;12.20;77.60;;;;;;4959731;28;20045;-89
2024/03/10 10:20:54;;;;;;;16.48;13.48;;;12.20;77.60;;;;;;4960876;28;20022;-89
2024/03/10 10:23:23;;;;;;;18.15;14.10;;;12.30;77.60;;;;;;4960464;28;20042;-86
2024/03/10 10:26:09;;;;;;;17.42;13.60;;;12.30;77.60;;;;;;4959184;28;20051;-87
2024/03/10 10:28:37;;;;;;;;;;;12.40;77.60;;;;;;4961681;28;20038;-85
2024/03/10 10:31:18;;;;;;;14.65;11.65;;;12.30;77.40;;;;;;4965137;28;19967;-84
2024/03/10 10:33:47;;;;;;;15.80;12.73;;;12.40;77.50;;;;;;4972112;28;20037;-86
2024/03/10 10:36:14;;;;;;;16.20;13.55;;;12.50;77.50;;;;;;4960185;28;20035;-84
2024/03/10 10:38:45;;;;;;;17.80;13.80;;;12.50;77.60;;;;;;4941642;29;20563;-91
2024/03/10 10:41:11;;;;;;;17.38;14.05;;;12.50;77.50;;;;;;4959566;28;20137;-85
2024/03/10 10:43:38;;;;;;;17.25;13.70;;;12.60;77.50;;;;;;4944825;28;20030;-90
2024/03/10 10:46:06;;;;;;;17.15;14.02;;;12.60;77.50;;;;;;4941682;28;20034;-86
2024/03/10 10:48:36;;;;;;;17.92;14.38;;;12.70;77.50;;;;;;4956654;28;20058;-87
2024/03/10 10:51:09;;;;;;;17.70;14.18;;;12.80;77.50;;;;;;4962988;28;20034;-89
2024/03/10 10:53:41;;;;;;;17.85;14.65;;;12.80;77.50;;;;;;4964982;28;20031;-84
2024/03/10 10:56:11;;;;;;;17.33;13.90;;;12.80;77.40;;;;;;4947948;28;20057;-89
2024/03/10 10:59:00;;;;;;;18.48;14.38;;;12.90;77.40;;;;;;4960306;28;20089;-92
2024/03/10 11:01:26;;;;;;;18.30;14.43;;;13.00;77.40;;;;;;4961833;28;20027;-85
2024/03/10 11:04:05;;;;;;;17.52;14.20;;;13.00;77.40;;;;;;4962799;28;20062;-85
2024/03/10 11:06:32;;;;;;;17.20;13.98;;;13.10;77.40;;;;;;4943128;28;20546;-85
2024/03/10 11:09:05;;;;;;;17.77;14.13;;;13.10;77.30;;;;;;4960187;28;20019;-86
2024/03/10 11:11:45;;;;;;;18.88;14.85;;;13.10;77.30;;;;;;4947416;28;20391;-87
2024/03/10 11:14:22;;;;;;;17.10;14.10;;;13.20;77.30;;;;;;4964845;28;20031;-90
2024/03/10 11:16:48;;;;;;;16.50;13.70;;;13.30;77.30;;;;;;4957666;28;20038;-92
2024/03/10 11:19:21;;;;;;;17.50;14.57;;;13.30;77.30;;;;;;4961012;28;20046;-89
2024/03/10 11:21:55;;;;;;;17.40;14.07;;;13.30;77.30;;;;;;4981851;28;20018;-83
2024/03/10 11:24:30;;;;;;;20.42;15.70;;;13.40;77.30;;;;;;4945558;28;20034;-86
2024/03/10 11:27:21;;;;;;;18.52;14.48;;;13.40;77.20;;;;;;4951402;28;20502;-89
2024/03/10 11:29:48;;;;;;;16.70;13.43;;;13.50;77.20;;;;;;4929753;28;20043;-91
2024/03/10 11:32:27;;;;;;;17.77;14.40;;;13.50;77.20;;;;;;4961920;28;20097;-93
2024/03/10 11:34:59;;;;;;;16.40;14.27;;;13.60;77.20;;;;;;4961974;28;20130;-89
2024/03/10 11:37:29;;;;;;;18.65;14.73;;;13.60;77.20;;;;;;4974242;28;20035;-88
2024/03/10 11:39:55;;;;;;;18.35;14.93;;;13.60;77.10;;;;;;4970584;28;20037;-87
2024/03/10 11:42:22;;;;;;;17.85;14.13;;;13.70;77.10;;;;;;4949290;28;20034;-84
2024/03/10 11:44:48;;;;;;;17.83;14.50;;;13.70;77.10;;;;;;4942455;28;20089;-83
2024/03/10 11:47:15;;;;;;;17.15;14.48;;;13.80;77.10;;;;;;4946806;28;20035;-82
2024/03/10 11:50:10;;;;;;;19.45;14.80;;;13.80;77.00;;;;;;4959425;28;20109;-92
2024/03/10 11:52:36;;;;;;;16.42;13.70;;;13.90;77.80;;;;;;4927396;28;20491;-90
2024/03/10 11:55:10;;;;;;;16.25;14.18;;;13.90;77.10;;;;;;4943036;28;20754;-86
2024/03/10 11:57:38;;;;;;;17.95;14.40;;;14.00;77.00;;;;;;4940109;29;20040;-83
2024/03/10 12:00:15;;;;;;;16.70;14.02;;;14.00;77.00;;;;;;4939431;29;20047;-86
2024/03/10 12:02:42;;;;;;;17.42;14.30;;;14.10;77.00;;;;;;4938560;29;20178;-83
2024/03/10 12:05:11;;;;;;;16.58;13.90;;;14.10;77.00;;;;;;4954011;29;20083;-92
2024/03/10 12:07:48;;;;;;;17.58;14.05;;;14.10;77.00;;;;;;4919787;29;20051;-85
2024/03/10 12:10:21;;;;;;;16.50;13.98;;;14.20;77.00;;;;;;4933593;29;20038;-84
2024/03/10 12:12:51;;;;;;;16.02;13.50;;;14.30;77.00;;;;;;4935805;29;20127;-88
2024/03/10 12:15:22;;;;;;;15.57;13.68;;;14.30;76.90;;;;;;4947585;29;20241;-83
2024/03/10 12:17:52;;;;;;;16.20;13.90;;;14.30;76.90;;;;;;4933398;29;20535;-90
2024/03/10 12:20:18;;;;;;;17.80;14.45;;;14.40;77.00;;;;;;4942872;29;20039;-91
2024/03/10 12:22:45;;;;;;;16.95;14.05;;;14.40;76.90;;;;;;4944882;28;20038;-82
2024/03/10 12:25:13;;;;;;;15.55;13.75;;;14.40;76.90;;;;;;4957953;28;20069;-86
2024/03/10 12:27:40;;;;;;;17.10;14.25;;;14.50;76.90;;;;;;4959500;28;20398;-86
2024/03/10 12:30:12;;;;;;;15.65;13.52;;;14.50;76.90;;;;;;4959731;28;20062;-85
2024/03/10 12:32:45;;;;;;;18.15;14.25;;;14.60;76.90;;;;;;4958593;28;20391;-83
2024/03/10 12:35:11;;;;;;;17.17;14.65;;;14.60;76.90;;;;;;4962000;28;20030;-83
2024/03/10 12:37:42;;;;;;;16.80;14.00;;;14.60;76.80;;;;;;4962758;28;20043;-95
2024/03/10 12:40:08;;;;;;;17.80;14.57;;;14.70;76.80;;;;;;4945899;28;20066;-85
2024/03/10 12:42:37;;;;;;;18.17;14.95;;;14.70;76.80;;;;;;4959804;28;20437;-85
2024/03/10 12:45:05;;;;;;;17.50;14.63;;;14.80;76.80;;;;;;4966935;28;20100;-84
2024/03/10 12:47:31;;;;;;;16.42;13.98;;;14.80;76.70;;;;;;4958330;28;20181;-87
2024/03/10 12:49:57;;;;;;;18.50;14.70;;;14.90;76.70;;;;;;4944160;28;20027;-84
2024/03/10 12:52:26;;;;;;;17.15;13.85;;;14.90;76.70;;;;;;4974484;28;20027;-83
2024/03/10 12:54:52;;;;;;;17.33;14.27;;;14.90;76.60;;;;;;4961350;28;20026;-83
2024/03/10 12:57:19;;;;;;;17.55;15.30;;;15.00;76.60;;;;;;4943163;28;20042;-84
2024/03/10 12:59:47;;;;;;;17.38;14.27;;;15.00;76.60;;;;;;4953889;28;20102;-90